Suederoog — ZDHC8 — position and weather

sailwx.info

Track history (hours):
 
Tides and Currents Weather Stations Pressure Air Temp Water Temp Dewpoint Dewpoint Depression Visibility Wind Speed Wind Dir Waves Ship Positions

Suederoog

Last reported at 2015-Sep-02 18:31 UTC. Time now 2015-Sep-02 19:01 UTC.
Position N 60°25' E 026°55'.

Length 161 m; draft 8.9 m.

Type: Cargo ship. MMSI: 236300000.

Date/timePositionNaut miles runAvg speedWind from/ knotsBaromVisibWave heightAir tempDewpointWater temp
2015-Sep-02 18:31N 60°25' E 026°55'0 0.0
2015-Sep-02 17:28N 60°25' E 026°55'0 0.0
2015-Sep-02 16:32N 60°25' E 026°55'0 0.0
2015-Sep-02 15:32N 60°25' E 026°55'0 0.0
2015-Sep-02 14:32N 60°25' E 026°55'0 0.0
2015-Sep-02 13:29N 60°25' E 026°55'0 0.0
2015-Sep-02 12:32N 60°25' E 026°55'0 0.0
2015-Sep-02 11:32N 60°25' E 026°55'7 7.5
2015-Sep-02 10:33N 60°22' E 026°42'1313.2
2015-Sep-02 09:34N 60°12' E 026°23'2 2.1
2015-Sep-02 08:32N 60°11' E 026°20'0 0.0
2015-Sep-02 07:32N 60°11' E 026°20'0 0.0
2015-Sep-02 06:32N 60°11' E 026°20'0 0.0
2015-Sep-02 05:32N 60°11' E 026°20'1 0.7
2015-Sep-02 04:33N 60°11' E 026°21'1111.1
2015-Sep-02 03:31N 60°04' E 026°39'9310.3
2015-Sep-01 18:26N 59°59' E 029°45'9 9.9
2015-Sep-01 17:33N 59°55' E 030°01'6 6.3
2015-Sep-01 16:34N 59°53' E 030°13'0 0.4
2015-Sep-01 15:32N 59°54' E 030°14'0 0.0
2015-Sep-01 14:29N 59°54' E 030°14'0 0.0
2015-Sep-01 13:32N 59°54' E 030°14'0 0.0
2015-Sep-01 12:33N 59°54' E 030°14'0 0.0
2015-Sep-01 11:33N 59°54' E 030°14'0 0.0
2015-Sep-01 10:33N 59°54' E 030°14'1 1.5
2015-Sep-01 09:31N 59°52' E 030°12'0 0.0
2015-Sep-01 08:31N 59°52' E 030°12'0 0.0
2015-Sep-01 07:31N 59°52' E 030°12'0 0.0
2015-Sep-01 06:33N 59°52' E 030°12'0 0.0
2015-Sep-01 05:25N 59°52' E 030°12'0 0.0
2015-Sep-01 04:31N 59°52' E 030°12'0 0.0
2015-Sep-01 03:31N 59°52' E 030°12'0 0.0
2015-Sep-01 02:31N 59°52' E 030°12'0 0.0
2015-Sep-01 01:31N 59°52' E 030°12'0 0.0
2015-Sep-01 00:31N 59°52' E 030°12'0 0.0
2015-Aug-31 23:32N 59°52' E 030°12'0 0.0
2015-Aug-31 22:32N 59°52' E 030°12'0 0.0
2015-Aug-31 21:32N 59°52' E 030°12'0 0.0
2015-Aug-31 20:32N 59°52' E 030°12'0 0.0
2015-Aug-31 19:32N 59°52' E 030°12'0 0.0
2015-Aug-31 18:32N 59°52' E 030°12'0 0.0
2015-Aug-31 17:32N 59°52' E 030°12'0 0.0
2015-Aug-31 16:32N 59°52' E 030°12'0 0.0
2015-Aug-31 15:32N 59°52' E 030°12'1 0.7
2015-Aug-31 14:33N 59°53' E 030°11'9 8.8
2015-Aug-31 13:33N 59°56' E 029°55'1110.8
2015-Aug-31 12:33N 60°01' E 029°35'6310.3
2015-Aug-31 06:24N 60°06' E 027°30'911.1
2015-Aug-31 05:33N 60°01' E 027°14'1010.4
2015-Aug-31 04:33N 59°59' E 026°53'1111.1
2015-Aug-31 03:33N 59°59' E 026°31'1111.3
2015-Aug-31 02:33N 59°56' E 026°09'1111.1
2015-Aug-31 01:33N 59°53' E 025°48'3711.2
2015-Aug-30 22:16N 59°45' E 024°36'811.1
2015-Aug-30 21:33N 59°43' E 024°21'1211.0
2015-Aug-30 20:30N 59°40' E 023°59'1111.0
2015-Aug-30 19:33N 59°36' E 023°40'22811.2
2015-Aug-29 23:14N 56°53' E 018°36'2011.2
2015-Aug-29 21:26N 56°39' E 018°09'11511.4
2015-Aug-29 11:21N 55°36' E 015°17'911.4
2015-Aug-29 10:33N 55°31' E 015°03'1211.6
2015-Aug-29 09:33N 55°26' E 014°45'1111.2
2015-Aug-29 08:33N 55°18' E 014°31'1111.4
2015-Aug-29 07:33N 55°09' E 014°19'1111.1
2015-Aug-29 06:33N 55°01' E 014°05'1111.3
2015-Aug-29 05:33N 54°57' E 013°46'1110.9
2015-Aug-29 04:33N 54°54' E 013°29'2411.4
2015-Aug-29 02:27N 54°47' E 012°48'2211.4
2015-Aug-29 00:30N 54°35' E 012°16'1111.4
2015-Aug-28 23:33N 54°25' E 012°09'1211.9
2015-Aug-28 22:33N 54°25' E 011°49'1211.7
2015-Aug-28 21:33N 54°29' E 011°30'1212.0
2015-Aug-28 20:33N 54°35' E 011°12'1312.0
2015-Aug-28 19:29N 54°34' E 010°50'1011.2
2015-Aug-28 18:33N 54°33' E 010°32'1110.8
2015-Aug-28 17:33N 54°28' E 010°16'7 7.1
2015-Aug-28 16:33N 54°22' E 010°08'3 3.4
2015-Aug-28 15:33N 54°22' E 010°03'7 6.9
2015-Aug-28 14:33N 54°22' E 009°51'8 7.8
2015-Aug-28 13:33N 54°17' E 009°40'7 6.9
2015-Aug-28 12:33N 54°12' E 009°33'8 6.9
2015-Aug-28 11:25N 54°09' E 009°21'7 8.3
2015-Aug-28 10:33N 54°02' E 009°18'8 8.0
2015-Aug-28 09:33N 53°55' E 009°11'2 2.0
2015-Aug-28 08:34N 53°53' E 009°08'7 7.0
2015-Aug-28 07:33N 53°51' E 009°19'1515.4
2015-Aug-28 06:34N 53°38' E 009°32'1111.3
2015-Aug-28 05:33N 53°33' E 009°50'4 4.4
2015-Aug-28 04:33N 53°32' E 009°57'0 0.0
2015-Aug-28 03:33N 53°32' E 009°57'0 0.0
2015-Aug-28 02:31N 53°32' E 009°57'0 0.0
2015-Aug-28 01:31N 53°32' E 009°57'0 0.0
2015-Aug-28 00:31N 53°32' E 009°57'0 0.0
2015-Aug-27 23:31N 53°32' E 009°57'0 0.0
2015-Aug-27 22:30N 53°32' E 009°57'0 0.0
2015-Aug-27 21:28N 53°32' E 009°57'0 0.0
2015-Aug-27 20:31N 53°32' E 009°57'0 0.0
2015-Aug-27 19:31N 53°32' E 009°57'0 0.0
2015-Aug-27 18:32N 53°32' E 009°57'0 0.0
2015-Aug-27 17:31N 53°32' E 009°57'0 0.0
2015-Aug-27 16:33N 53°32' E 009°57'0 0.0
2015-Aug-27 15:33N 53°32' E 009°57'0 0.0
2015-Aug-27 14:30N 53°32' E 009°57'0 0.0
2015-Aug-27 13:33N 53°32' E 009°57'1 1.2
2015-Aug-27 12:25N 53°32' E 009°55'0 0.0
2015-Aug-27 11:31N 53°32' E 009°55'0 0.0
2015-Aug-27 10:31N 53°32' E 009°55'0 0.0
2015-Aug-27 09:32N 53°32' E 009°55'0 0.0
2015-Aug-27 08:32N 53°32' E 009°55'0 0.0
2015-Aug-27 07:33N 53°32' E 009°55'0 0.0
2015-Aug-27 06:33N 53°32' E 009°55'0 0.0
2015-Aug-27 05:33N 53°32' E 009°55'0 0.0
2015-Aug-27 04:32N 53°32' E 009°55'3 2.7
2015-Aug-27 03:33N 53°33' E 009°51'1010.2
2015-Aug-27 02:34N 53°36' E 009°35'1413.8
2015-Aug-27 01:33N 53°48' E 009°23'10 9.8
2015-Aug-27 00:33N 53°54' E 009°09'2 1.9
2015-Aug-26 23:33N 53°55' E 009°11'7 7.5
2015-Aug-26 22:33N 54°01' E 009°18'8 7.9
2015-Aug-26 21:33N 54°09' E 009°21'4 3.9
2015-Aug-26 20:33N 54°11' E 009°27'6 5.6
2015-Aug-26 19:33N 54°13' E 009°36'7 6.8
2015-Aug-26 18:33N 54°19' E 009°43'3 2.8
2015-Aug-26 17:33N 54°21' E 009°46'7 6.8
2015-Aug-26 16:33N 54°21' E 009°57'7 6.6
2015-Aug-26 15:33N 54°22' E 010°08'1 1.0
2015-Aug-26 14:34N 54°22' E 010°10'6 5.8
2015-Aug-26 13:34N 54°27' E 010°14'5 4.7
2015-Aug-26 12:32N 54°31' E 010°17'0 0.0
2015-Aug-26 11:32N 54°31' E 010°17'0 0.0
2015-Aug-26 10:32N 54°31' E 010°17'0 0.0
2015-Aug-26 09:32N 54°31' E 010°17'0 0.0
2015-Aug-26 08:31N 54°31' E 010°17'0 0.0
2015-Aug-26 07:31N 54°31' E 010°17'0 0.0
2015-Aug-26 06:28N 54°31' E 010°17'0 0.0
2015-Aug-26 05:31N 54°31' E 010°17'0 0.0
2015-Aug-26 04:31N 54°31' E 010°17'5 5.6
2015-Aug-26 03:33N 54°33' E 010°26'1211.6
2015-Aug-26 02:33N 54°35' E 010°46'1211.9
2015-Aug-26 01:34N 54°36' E 011°06'1211.6
2015-Aug-26 00:34N 54°32' E 011°25'1211.7
2015-Aug-25 23:33N 54°27' E 011°44'1211.7
2015-Aug-25 22:34N 54°26' E 012°03'10 9.6
2015-Aug-25 21:34N 54°33' E 012°15'5711.0
2015-Aug-25 16:24N 54°59' E 013°42'911.2
2015-Aug-25 15:33N 55°03' E 013°58'1110.7
2015-Aug-25 14:33N 55°09' E 014°12'1111.4
2015-Aug-25 13:33N 55°19' E 014°24'1211.5
2015-Aug-25 12:33N 55°27' E 014°38'1616.5
2015-Aug-25 11:33N 55°36' E 015°03'1414.2
2015-Aug-25 10:33N 55°43' E 015°24'4911.6
2015-Aug-25 06:18N 56°08' E 016°41'911.5
2015-Aug-25 05:33N 56°13' E 016°54'1211.5
2015-Aug-25 04:33N 56°19' E 017°10'1111.5
2015-Aug-25 03:33N 56°26' E 017°27'1111.4
2015-Aug-25 02:33N 56°33' E 017°44'1111.4
2015-Aug-25 01:34N 56°40' E 018°00'1111.4
2015-Aug-25 00:33N 56°47' E 018°17'1211.3
2015-Aug-24 23:31N 56°55' E 018°32'1311.4
2015-Aug-24 22:21N 57°06' E 018°46'911.6
2015-Aug-24 21:32N 57°13' E 018°56'1111.8
2015-Aug-24 20:33N 57°22' E 019°09'1211.6
2015-Aug-24 19:33N 57°32' E 019°23'1211.6
2015-Aug-24 18:33N 57°41' E 019°35'1311.4
2015-Aug-24 17:26N 57°51' E 019°49'2211.2
2015-Aug-24 15:30N 58°09' E 020°14'2211.1
2015-Aug-24 13:28N 58°27' E 020°39'1011.2
2015-Aug-24 12:33N 58°35' E 020°51'1211.4
2015-Aug-24 11:33N 58°45' E 021°04'1111.5
2015-Aug-24 10:33N 58°54' E 021°17'2411.4
2015-Aug-24 08:26N 59°12' E 021°47'1211.5
2015-Aug-24 07:22N 59°20' E 022°05'1111.6
2015-Aug-24 06:27N 59°27' E 022°22'1011.3
2015-Aug-24 05:33N 59°31' E 022°40'1311.4
2015-Aug-24 04:26N 59°35' E 023°04'1111.5
2015-Aug-24 03:28N 59°38' E 023°25'1111.5
2015-Aug-24 02:33N 59°41' E 023°45'1211.6
2015-Aug-24 01:33N 59°44' E 024°07'1411.4
2015-Aug-24 00:18N 59°48' E 024°34'1011.3
2015-Aug-23 23:27N 59°50' E 024°53'3711.5
2015-Aug-23 20:11N 59°58' E 026°06'  
Track history (hours):
 
Tides and Currents Weather Stations Pressure Air Temp Water Temp Dewpoint Dewpoint Depression Visibility Wind Speed Wind Dir Waves Ship Positions

Suederoog

Last reported at 2015-Sep-02 18:31 UTC. Time now 2015-Sep-02 19:01 UTC.
Position N 60°25' E 026°55'.

Length 161 m; draft 8.9 m.

Type: Cargo ship. MMSI: 236300000.

Date/timePositionNaut miles runAvg speedWind from/ knotsBaromVisibWave heightAir tempDewpointWater temp
2015-Sep-02 18:31N 60°25' E 026°55'0 0.0
2015-Sep-02 17:28N 60°25' E 026°55'0 0.0
2015-Sep-02 16:32N 60°25' E 026°55'0 0.0
2015-Sep-02 15:32N 60°25' E 026°55'0 0.0
2015-Sep-02 14:32N 60°25' E 026°55'0 0.0
2015-Sep-02 13:29N 60°25' E 026°55'0 0.0
2015-Sep-02 12:32N 60°25' E 026°55'0 0.0
2015-Sep-02 11:32N 60°25' E 026°55'7 7.5
2015-Sep-02 10:33N 60°22' E 026°42'1313.2
2015-Sep-02 09:34N 60°12' E 026°23'2 2.1
2015-Sep-02 08:32N 60°11' E 026°20'0 0.0
2015-Sep-02 07:32N 60°11' E 026°20'0 0.0
2015-Sep-02 06:32N 60°11' E 026°20'0 0.0
2015-Sep-02 05:32N 60°11' E 026°20'1 0.7
2015-Sep-02 04:33N 60°11' E 026°21'1111.1
2015-Sep-02 03:31N 60°04' E 026°39'9310.3
2015-Sep-01 18:26N 59°59' E 029°45'9 9.9
2015-Sep-01 17:33N 59°55' E 030°01'6 6.3
2015-Sep-01 16:34N 59°53' E 030°13'0 0.4
2015-Sep-01 15:32N 59°54' E 030°14'0 0.0
2015-Sep-01 14:29N 59°54' E 030°14'0 0.0
2015-Sep-01 13:32N 59°54' E 030°14'0 0.0
2015-Sep-01 12:33N 59°54' E 030°14'0 0.0
2015-Sep-01 11:33N 59°54' E 030°14'0 0.0
2015-Sep-01 10:33N 59°54' E 030°14'1 1.5
2015-Sep-01 09:31N 59°52' E 030°12'0 0.0
2015-Sep-01 08:31N 59°52' E 030°12'0 0.0
2015-Sep-01 07:31N 59°52' E 030°12'0 0.0
2015-Sep-01 06:33N 59°52' E 030°12'0 0.0
2015-Sep-01 05:25N 59°52' E 030°12'0 0.0
2015-Sep-01 04:31N 59°52' E 030°12'0 0.0
2015-Sep-01 03:31N 59°52' E 030°12'0 0.0
2015-Sep-01 02:31N 59°52' E 030°12'0 0.0
2015-Sep-01 01:31N 59°52' E 030°12'0 0.0
2015-Sep-01 00:31N 59°52' E 030°12'0 0.0
2015-Aug-31 23:32N 59°52' E 030°12'0 0.0
2015-Aug-31 22:32N 59°52' E 030°12'0 0.0
2015-Aug-31 21:32N 59°52' E 030°12'0 0.0
2015-Aug-31 20:32N 59°52' E 030°12'0 0.0
2015-Aug-31 19:32N 59°52' E 030°12'0 0.0
2015-Aug-31 18:32N 59°52' E 030°12'0 0.0
2015-Aug-31 17:32N 59°52' E 030°12'0 0.0
2015-Aug-31 16:32N 59°52' E 030°12'0 0.0
2015-Aug-31 15:32N 59°52' E 030°12'1 0.7
2015-Aug-31 14:33N 59°53' E 030°11'9 8.8
2015-Aug-31 13:33N 59°56' E 029°55'1110.8
2015-Aug-31 12:33N 60°01' E 029°35'6310.3
2015-Aug-31 06:24N 60°06' E 027°30'911.1
2015-Aug-31 05:33N 60°01' E 027°14'1010.4
2015-Aug-31 04:33N 59°59' E 026°53'1111.1
2015-Aug-31 03:33N 59°59' E 026°31'1111.3
2015-Aug-31 02:33N 59°56' E 026°09'1111.1
2015-Aug-31 01:33N 59°53' E 025°48'3711.2
2015-Aug-30 22:16N 59°45' E 024°36'811.1
2015-Aug-30 21:33N 59°43' E 024°21'1211.0
2015-Aug-30 20:30N 59°40' E 023°59'1111.0
2015-Aug-30 19:33N 59°36' E 023°40'22811.2
2015-Aug-29 23:14N 56°53' E 018°36'2011.2
2015-Aug-29 21:26N 56°39' E 018°09'11511.4
2015-Aug-29 11:21N 55°36' E 015°17'911.4
2015-Aug-29 10:33N 55°31' E 015°03'1211.6
2015-Aug-29 09:33N 55°26' E 014°45'1111.2
2015-Aug-29 08:33N 55°18' E 014°31'1111.4
2015-Aug-29 07:33N 55°09' E 014°19'1111.1
2015-Aug-29 06:33N 55°01' E 014°05'1111.3
2015-Aug-29 05:33N 54°57' E 013°46'1110.9
2015-Aug-29 04:33N 54°54' E 013°29'2411.4
2015-Aug-29 02:27N 54°47' E 012°48'2211.4
2015-Aug-29 00:30N 54°35' E 012°16'1111.4
2015-Aug-28 23:33N 54°25' E 012°09'1211.9
2015-Aug-28 22:33N 54°25' E 011°49'1211.7
2015-Aug-28 21:33N 54°29' E 011°30'1212.0
2015-Aug-28 20:33N 54°35' E 011°12'1312.0
2015-Aug-28 19:29N 54°34' E 010°50'1011.2
2015-Aug-28 18:33N 54°33' E 010°32'1110.8
2015-Aug-28 17:33N 54°28' E 010°16'7 7.1
2015-Aug-28 16:33N 54°22' E 010°08'3 3.4
2015-Aug-28 15:33N 54°22' E 010°03'7 6.9
2015-Aug-28 14:33N 54°22' E 009°51'8 7.8
2015-Aug-28 13:33N 54°17' E 009°40'7 6.9
2015-Aug-28 12:33N 54°12' E 009°33'8 6.9
2015-Aug-28 11:25N 54°09' E 009°21'7 8.3
2015-Aug-28 10:33N 54°02' E 009°18'8 8.0
2015-Aug-28 09:33N 53°55' E 009°11'2 2.0
2015-Aug-28 08:34N 53°53' E 009°08'7 7.0
2015-Aug-28 07:33N 53°51' E 009°19'1515.4
2015-Aug-28 06:34N 53°38' E 009°32'1111.3
2015-Aug-28 05:33N 53°33' E 009°50'4 4.4
2015-Aug-28 04:33N 53°32' E 009°57'0 0.0
2015-Aug-28 03:33N 53°32' E 009°57'0 0.0
2015-Aug-28 02:31N 53°32' E 009°57'0 0.0
2015-Aug-28 01:31N 53°32' E 009°57'0 0.0
2015-Aug-28 00:31N 53°32' E 009°57'0 0.0
2015-Aug-27 23:31N 53°32' E 009°57'0 0.0
2015-Aug-27 22:30N 53°32' E 009°57'0 0.0
2015-Aug-27 21:28N 53°32' E 009°57'0 0.0
2015-Aug-27 20:31N 53°32' E 009°57'0 0.0
2015-Aug-27 19:31N 53°32' E 009°57'0 0.0
2015-Aug-27 18:32N 53°32' E 009°57'0 0.0
2015-Aug-27 17:31N 53°32' E 009°57'0 0.0
2015-Aug-27 16:33N 53°32' E 009°57'0 0.0
2015-Aug-27 15:33N 53°32' E 009°57'0 0.0
2015-Aug-27 14:30N 53°32' E 009°57'0 0.0
2015-Aug-27 13:33N 53°32' E 009°57'1 1.2
2015-Aug-27 12:25N 53°32' E 009°55'0 0.0
2015-Aug-27 11:31N 53°32' E 009°55'0 0.0
2015-Aug-27 10:31N 53°32' E 009°55'0 0.0
2015-Aug-27 09:32N 53°32' E 009°55'0 0.0
2015-Aug-27 08:32N 53°32' E 009°55'0 0.0
2015-Aug-27 07:33N 53°32' E 009°55'0 0.0
2015-Aug-27 06:33N 53°32' E 009°55'0 0.0
2015-Aug-27 05:33N 53°32' E 009°55'0 0.0
2015-Aug-27 04:32N 53°32' E 009°55'3 2.7
2015-Aug-27 03:33N 53°33' E 009°51'1010.2
2015-Aug-27 02:34N 53°36' E 009°35'1413.8
2015-Aug-27 01:33N 53°48' E 009°23'10 9.8
2015-Aug-27 00:33N 53°54' E 009°09'2 1.9
2015-Aug-26 23:33N 53°55' E 009°11'7 7.5
2015-Aug-26 22:33N 54°01' E 009°18'8 7.9
2015-Aug-26 21:33N 54°09' E 009°21'4 3.9
2015-Aug-26 20:33N 54°11' E 009°27'6 5.6
2015-Aug-26 19:33N 54°13' E 009°36'7 6.8
2015-Aug-26 18:33N 54°19' E 009°43'3 2.8
2015-Aug-26 17:33N 54°21' E 009°46'7 6.8
2015-Aug-26 16:33N 54°21' E 009°57'7 6.6
2015-Aug-26 15:33N 54°22' E 010°08'1 1.0
2015-Aug-26 14:34N 54°22' E 010°10'6 5.8
2015-Aug-26 13:34N 54°27' E 010°14'5 4.7
2015-Aug-26 12:32N 54°31' E 010°17'0 0.0
2015-Aug-26 11:32N 54°31' E 010°17'0 0.0
2015-Aug-26 10:32N 54°31' E 010°17'0 0.0
2015-Aug-26 09:32N 54°31' E 010°17'0 0.0
2015-Aug-26 08:31N 54°31' E 010°17'0 0.0
2015-Aug-26 07:31N 54°31' E 010°17'0 0.0
2015-Aug-26 06:28N 54°31' E 010°17'0 0.0
2015-Aug-26 05:31N 54°31' E 010°17'0 0.0
2015-Aug-26 04:31N 54°31' E 010°17'5 5.6
2015-Aug-26 03:33N 54°33' E 010°26'1211.6
2015-Aug-26 02:33N 54°35' E 010°46'1211.9
2015-Aug-26 01:34N 54°36' E 011°06'1211.6
2015-Aug-26 00:34N 54°32' E 011°25'1211.7
2015-Aug-25 23:33N 54°27' E 011°44'1211.7
2015-Aug-25 22:34N 54°26' E 012°03'10 9.6
2015-Aug-25 21:34N 54°33' E 012°15'5711.0
2015-Aug-25 16:24N 54°59' E 013°42'911.2
2015-Aug-25 15:33N 55°03' E 013°58'1110.7
2015-Aug-25 14:33N 55°09' E 014°12'1111.4
2015-Aug-25 13:33N 55°19' E 014°24'1211.5
2015-Aug-25 12:33N 55°27' E 014°38'1616.5
2015-Aug-25 11:33N 55°36' E 015°03'1414.2
2015-Aug-25 10:33N 55°43' E 015°24'4911.6
2015-Aug-25 06:18N 56°08' E 016°41'911.5
2015-Aug-25 05:33N 56°13' E 016°54'1211.5
2015-Aug-25 04:33N 56°19' E 017°10'1111.5
2015-Aug-25 03:33N 56°26' E 017°27'1111.4
2015-Aug-25 02:33N 56°33' E 017°44'1111.4
2015-Aug-25 01:34N 56°40' E 018°00'1111.4
2015-Aug-25 00:33N 56°47' E 018°17'1211.3
2015-Aug-24 23:31N 56°55' E 018°32'1311.4
2015-Aug-24 22:21N 57°06' E 018°46'911.6
2015-Aug-24 21:32N 57°13' E 018°56'1111.8
2015-Aug-24 20:33N 57°22' E 019°09'1211.6
2015-Aug-24 19:33N 57°32' E 019°23'1211.6
2015-Aug-24 18:33N 57°41' E 019°35'1311.4
2015-Aug-24 17:26N 57°51' E 019°49'2211.2
2015-Aug-24 15:30N 58°09' E 020°14'2211.1
2015-Aug-24 13:28N 58°27' E 020°39'1011.2
2015-Aug-24 12:33N 58°35' E 020°51'1211.4
2015-Aug-24 11:33N 58°45' E 021°04'1111.5
2015-Aug-24 10:33N 58°54' E 021°17'2411.4
2015-Aug-24 08:26N 59°12' E 021°47'1211.5
2015-Aug-24 07:22N 59°20' E 022°05'1111.6
2015-Aug-24 06:27N 59°27' E 022°22'1011.3
2015-Aug-24 05:33N 59°31' E 022°40'1311.4
2015-Aug-24 04:26N 59°35' E 023°04'1111.5
2015-Aug-24 03:28N 59°38' E 023°25'1111.5
2015-Aug-24 02:33N 59°41' E 023°45'1211.6
2015-Aug-24 01:33N 59°44' E 024°07'1411.4
2015-Aug-24 00:18N 59°48' E 024°34'1011.3
2015-Aug-23 23:27N 59°50' E 024°53'3711.5
2015-Aug-23 20:11N 59°58' E 026°06'  

Dump ship's entire track history